sensor_id;sensor_type;location;lat;lon;timestamp;P1;durP1;ratioP1;P2;durP2;ratioP2
16442;SDS011;8331;51.654;14.376;2023-06-26T00:01:03;11.27;;;10.37;;
16442;SDS011;8331;51.654;14.376;2023-06-26T00:03:32;10.20;;;9.57;;
16442;SDS011;8331;51.654;14.376;2023-06-26T00:05:59;10.67;;;9.77;;
16442;SDS011;8331;51.654;14.376;2023-06-26T00:08:27;11.03;;;10.10;;
16442;SDS011;8331;51.654;14.376;2023-06-26T00:10:54;10.87;;;10.07;;
16442;SDS011;8331;51.654;14.376;2023-06-26T00:13:21;10.70;;;9.77;;
16442;SDS011;8331;51.654;14.376;2023-06-26T00:15:48;10.73;;;9.93;;
16442;SDS011;8331;51.654;14.376;2023-06-26T00:18:14;10.73;;;9.93;;
16442;SDS011;8331;51.654;14.376;2023-06-26T00:20:41;10.53;;;9.73;;
16442;SDS011;8331;51.654;14.376;2023-06-26T00:23:08;10.83;;;9.73;;
16442;SDS011;8331;51.654;14.376;2023-06-26T00:25:34;10.83;;;9.73;;
16442;SDS011;8331;51.654;14.376;2023-06-26T00:28:01;10.83;;;10.00;;
16442;SDS011;8331;51.654;14.376;2023-06-26T00:30:28;10.60;;;9.90;;
16442;SDS011;8331;51.654;14.376;2023-06-26T00:32:56;10.90;;;10.00;;
16442;SDS011;8331;51.654;14.376;2023-06-26T00:35:23;10.83;;;9.93;;
16442;SDS011;8331;51.654;14.376;2023-06-26T00:37:50;10.80;;;10.00;;
16442;SDS011;8331;51.654;14.376;2023-06-26T00:40:16;10.47;;;9.67;;
16442;SDS011;8331;51.654;14.376;2023-06-26T00:42:43;11.30;;;10.33;;
16442;SDS011;8331;51.654;14.376;2023-06-26T00:45:10;10.67;;;9.97;;
16442;SDS011;8331;51.654;14.376;2023-06-26T00:47:37;10.03;;;9.17;;
16442;SDS011;8331;51.654;14.376;2023-06-26T00:50:04;10.77;;;10.07;;
16442;SDS011;8331;51.654;14.376;2023-06-26T00:52:31;10.17;;;9.40;;
16442;SDS011;8331;51.654;14.376;2023-06-26T00:54:58;11.20;;;10.40;;
16442;SDS011;8331;51.654;14.376;2023-06-26T00:57:25;10.47;;;9.67;;
16442;SDS011;8331;51.654;14.376;2023-06-26T00:59:52;10.83;;;9.97;;
16442;SDS011;8331;51.654;14.376;2023-06-26T01:02:20;9.70;;;9.00;;
16442;SDS011;8331;51.654;14.376;2023-06-26T01:04:49;10.47;;;9.60;;
16442;SDS011;8331;51.654;14.376;2023-06-26T01:07:17;10.40;;;9.60;;
16442;SDS011;8331;51.654;14.376;2023-06-26T01:09:48;11.40;;;10.30;;
16442;SDS011;8331;51.654;14.376;2023-06-26T01:12:15;10.97;;;10.07;;
16442;SDS011;8331;51.654;14.376;2023-06-26T01:14:42;10.67;;;9.80;;
16442;SDS011;8331;51.654;14.376;2023-06-26T01:17:09;11.07;;;10.27;;
16442;SDS011;8331;51.654;14.376;2023-06-26T01:19:40;11.47;;;10.47;;
16442;SDS011;8331;51.654;14.376;2023-06-26T01:22:22;11.47;;;10.67;;
16442;SDS011;8331;51.654;14.376;2023-06-26T01:27:37;11.80;;;10.90;;
16442;SDS011;8331;51.654;14.376;2023-06-26T01:30:04;11.60;;;10.63;;
16442;SDS011;8331;51.654;14.376;2023-06-26T01:32:34;11.57;;;10.57;;
16442;SDS011;8331;51.654;14.376;2023-06-26T01:35:01;10.63;;;9.70;;
16442;SDS011;8331;51.654;14.376;2023-06-26T01:37:28;11.40;;;10.40;;
16442;SDS011;8331;51.654;14.376;2023-06-26T01:39:55;10.30;;;9.47;;
16442;SDS011;8331;51.654;14.376;2023-06-26T01:42:22;11.10;;;10.20;;
16442;SDS011;8331;51.654;14.376;2023-06-26T01:44:48;11.63;;;10.73;;
16442;SDS011;8331;51.654;14.376;2023-06-26T01:47:19;11.20;;;10.30;;
16442;SDS011;8331;51.654;14.376;2023-06-26T01:57:50;10.73;;;9.80;;
16442;SDS011;8331;51.654;14.376;2023-06-26T02:00:18;11.77;;;10.77;;
16442;SDS011;8331;51.654;14.376;2023-06-26T02:02:46;11.60;;;10.60;;
16442;SDS011;8331;51.654;14.376;2023-06-26T02:05:13;11.67;;;10.67;;
16442;SDS011;8331;51.654;14.376;2023-06-26T02:07:40;11.30;;;10.40;;
16442;SDS011;8331;51.654;14.376;2023-06-26T02:10:07;11.47;;;10.67;;
16442;SDS011;8331;51.654;14.376;2023-06-26T02:12:34;11.87;;;10.97;;
16442;SDS011;8331;51.654;14.376;2023-06-26T02:15:02;11.50;;;10.70;;
16442;SDS011;8331;51.654;14.376;2023-06-26T02:17:29;11.30;;;10.30;;
16442;SDS011;8331;51.654;14.376;2023-06-26T02:19:56;12.03;;;11.03;;
16442;SDS011;8331;51.654;14.376;2023-06-26T02:22:22;12.13;;;11.23;;
16442;SDS011;8331;51.654;14.376;2023-06-26T02:24:49;12.13;;;11.17;;
16442;SDS011;8331;51.654;14.376;2023-06-26T02:27:16;11.57;;;10.73;;
16442;SDS011;8331;51.654;14.376;2023-06-26T02:29:42;10.97;;;10.17;;
16442;SDS011;8331;51.654;14.376;2023-06-26T02:32:09;11.70;;;10.80;;
16442;SDS011;8331;51.654;14.376;2023-06-26T02:34:35;11.33;;;10.50;;
16442;SDS011;8331;51.654;14.376;2023-06-26T02:37:02;11.67;;;10.53;;
16442;SDS011;8331;51.654;14.376;2023-06-26T02:39:29;12.13;;;11.10;;
16442;SDS011;8331;51.654;14.376;2023-06-26T02:41:56;11.53;;;10.63;;
16442;SDS011;8331;51.654;14.376;2023-06-26T02:44:23;13.00;;;11.40;;
16442;SDS011;8331;51.654;14.376;2023-06-26T02:46:50;11.63;;;10.73;;
16442;SDS011;8331;51.654;14.376;2023-06-26T02:49:17;12.07;;;11.07;;
16442;SDS011;8331;51.654;14.376;2023-06-26T02:51:47;10.90;;;10.00;;
16442;SDS011;8331;51.654;14.376;2023-06-26T02:54:21;12.47;;;11.33;;
16442;SDS011;8331;51.654;14.376;2023-06-26T02:56:52;12.33;;;10.77;;
16442;SDS011;8331;51.654;14.376;2023-06-26T02:59:23;11.80;;;10.83;;
16442;SDS011;8331;51.654;14.376;2023-06-26T03:01:51;11.10;;;10.30;;
16442;SDS011;8331;51.654;14.376;2023-06-26T03:04:18;11.73;;;10.93;;
16442;SDS011;8331;51.654;14.376;2023-06-26T03:06:48;12.27;;;11.17;;
16442;SDS011;8331;51.654;14.376;2023-06-26T03:09:14;12.00;;;11.17;;
16442;SDS011;8331;51.654;14.376;2023-06-26T03:11:42;12.77;;;11.70;;
16442;SDS011;8331;51.654;14.376;2023-06-26T03:14:10;12.13;;;11.23;;
16442;SDS011;8331;51.654;14.376;2023-06-26T03:16:37;11.77;;;10.97;;
16442;SDS011;8331;51.654;14.376;2023-06-26T03:19:04;12.57;;;11.47;;
16442;SDS011;8331;51.654;14.376;2023-06-26T03:21:42;12.47;;;11.20;;
16442;SDS011;8331;51.654;14.376;2023-06-26T03:24:10;11.30;;;10.47;;
16442;SDS011;8331;51.654;14.376;2023-06-26T03:26:36;12.77;;;11.57;;
16442;SDS011;8331;51.654;14.376;2023-06-26T03:29:03;12.07;;;11.13;;
16442;SDS011;8331;51.654;14.376;2023-06-26T03:31:30;11.47;;;10.53;;
16442;SDS011;8331;51.654;14.376;2023-06-26T03:33:58;12.10;;;11.13;;
16442;SDS011;8331;51.654;14.376;2023-06-26T03:36:25;12.27;;;11.27;;
16442;SDS011;8331;51.654;14.376;2023-06-26T03:38:52;12.20;;;11.30;;
16442;SDS011;8331;51.654;14.376;2023-06-26T03:41:24;11.50;;;10.60;;
16442;SDS011;8331;51.654;14.376;2023-06-26T03:43:50;11.97;;;11.03;;
16442;SDS011;8331;51.654;14.376;2023-06-26T03:46:24;12.50;;;11.30;;
16442;SDS011;8331;51.654;14.376;2023-06-26T03:48:51;11.83;;;10.70;;
16442;SDS011;8331;51.654;14.376;2023-06-26T03:51:17;12.53;;;11.43;;
16442;SDS011;8331;51.654;14.376;2023-06-26T03:53:44;13.03;;;12.03;;
16442;SDS011;8331;51.654;14.376;2023-06-26T03:56:11;12.63;;;11.63;;
16442;SDS011;8331;51.654;14.376;2023-06-26T03:58:37;12.00;;;10.93;;
16442;SDS011;8331;51.654;14.376;2023-06-26T04:01:04;11.87;;;10.90;;
16442;SDS011;8331;51.654;14.376;2023-06-26T04:03:31;12.20;;;11.20;;
16442;SDS011;8331;51.654;14.376;2023-06-26T04:05:58;11.73;;;10.83;;
16442;SDS011;8331;51.654;14.376;2023-06-26T04:08:24;12.00;;;10.97;;
16442;SDS011;8331;51.654;14.376;2023-06-26T04:10:55;11.63;;;10.77;;
16442;SDS011;8331;51.654;14.376;2023-06-26T04:13:25;11.40;;;10.60;;
16442;SDS011;8331;51.654;14.376;2023-06-26T04:15:51;11.30;;;10.50;;
16442;SDS011;8331;51.654;14.376;2023-06-26T04:18:18;12.40;;;11.37;;
16442;SDS011;8331;51.654;14.376;2023-06-26T04:23:33;12.30;;;11.40;;
16442;SDS011;8331;51.654;14.376;2023-06-26T04:26:00;11.87;;;10.70;;
16442;SDS011;8331;51.654;14.376;2023-06-26T04:28:27;11.07;;;10.23;;
16442;SDS011;8331;51.654;14.376;2023-06-26T04:30:53;12.67;;;11.70;;
16442;SDS011;8331;51.654;14.376;2023-06-26T04:33:20;10.50;;;9.70;;
16442;SDS011;8331;51.654;14.376;2023-06-26T04:35:46;11.30;;;10.30;;
16442;SDS011;8331;51.654;14.376;2023-06-26T04:38:15;11.10;;;10.00;;
16442;SDS011;8331;51.654;14.376;2023-06-26T04:40:42;11.37;;;10.47;;
16442;SDS011;8331;51.654;14.376;2023-06-26T04:43:09;11.07;;;10.10;;
16442;SDS011;8331;51.654;14.376;2023-06-26T04:45:35;11.60;;;10.67;;
16442;SDS011;8331;51.654;14.376;2023-06-26T04:48:02;11.20;;;10.30;;
16442;SDS011;8331;51.654;14.376;2023-06-26T04:50:30;10.40;;;9.60;;
16442;SDS011;8331;51.654;14.376;2023-06-26T04:52:57;10.80;;;9.90;;
16442;SDS011;8331;51.654;14.376;2023-06-26T04:55:23;10.97;;;10.10;;
16442;SDS011;8331;51.654;14.376;2023-06-26T04:57:50;10.53;;;9.67;;
16442;SDS011;8331;51.654;14.376;2023-06-26T05:00:17;10.47;;;9.77;;
16442;SDS011;8331;51.654;14.376;2023-06-26T05:02:44;10.40;;;9.63;;
16442;SDS011;8331;51.654;14.376;2023-06-26T05:05:11;10.93;;;10.03;;
16442;SDS011;8331;51.654;14.376;2023-06-26T05:07:37;10.53;;;9.73;;
16442;SDS011;8331;51.654;14.376;2023-06-26T05:10:04;10.30;;;9.60;;
16442;SDS011;8331;51.654;14.376;2023-06-26T05:12:31;10.07;;;9.37;;
16442;SDS011;8331;51.654;14.376;2023-06-26T05:14:57;11.23;;;10.23;;
16442;SDS011;8331;51.654;14.376;2023-06-26T05:17:24;10.23;;;9.43;;
16442;SDS011;8331;51.654;14.376;2023-06-26T05:19:51;10.33;;;9.57;;
16442;SDS011;8331;51.654;14.376;2023-06-26T05:22:17;9.93;;;9.20;;
16442;SDS011;8331;51.654;14.376;2023-06-26T05:24:46;10.50;;;9.60;;
16442;SDS011;8331;51.654;14.376;2023-06-26T05:27:13;9.77;;;9.07;;
16442;SDS011;8331;51.654;14.376;2023-06-26T05:29:48;10.63;;;9.67;;
16442;SDS011;8331;51.654;14.376;2023-06-26T05:32:15;9.93;;;9.03;;
16442;SDS011;8331;51.654;14.376;2023-06-26T05:34:47;9.00;;;8.40;;
16442;SDS011;8331;51.654;14.376;2023-06-26T05:37:19;9.80;;;8.93;;
16442;SDS011;8331;51.654;14.376;2023-06-26T05:39:46;9.67;;;9.00;;
16442;SDS011;8331;51.654;14.376;2023-06-26T05:42:13;9.63;;;8.93;;
16442;SDS011;8331;51.654;14.376;2023-06-26T05:44:40;9.73;;;9.03;;
16442;SDS011;8331;51.654;14.376;2023-06-26T05:47:06;9.30;;;8.70;;
16442;SDS011;8331;51.654;14.376;2023-06-26T05:49:33;9.17;;;8.37;;
16442;SDS011;8331;51.654;14.376;2023-06-26T05:52:00;8.90;;;8.20;;
16442;SDS011;8331;51.654;14.376;2023-06-26T05:54:27;8.80;;;8.20;;
16442;SDS011;8331;51.654;14.376;2023-06-26T05:56:56;9.00;;;8.30;;
16442;SDS011;8331;51.654;14.376;2023-06-26T05:59:22;8.27;;;7.67;;
16442;SDS011;8331;51.654;14.376;2023-06-26T06:01:49;8.87;;;8.23;;
16442;SDS011;8331;51.654;14.376;2023-06-26T06:04:16;8.57;;;8.00;;
16442;SDS011;8331;51.654;14.376;2023-06-26T06:06:42;8.20;;;7.60;;
16442;SDS011;8331;51.654;14.376;2023-06-26T06:09:09;7.93;;;7.40;;
16442;SDS011;8331;51.654;14.376;2023-06-26T06:11:36;8.57;;;7.87;;
16442;SDS011;8331;51.654;14.376;2023-06-26T06:14:03;8.30;;;7.80;;
16442;SDS011;8331;51.654;14.376;2023-06-26T06:16:30;7.67;;;7.17;;
16442;SDS011;8331;51.654;14.376;2023-06-26T06:18:57;7.00;;;6.50;;
16442;SDS011;8331;51.654;14.376;2023-06-26T06:21:24;7.83;;;7.20;;
16442;SDS011;8331;51.654;14.376;2023-06-26T06:23:50;7.47;;;6.87;;
16442;SDS011;8331;51.654;14.376;2023-06-26T06:26:17;7.20;;;6.53;;
16442;SDS011;8331;51.654;14.376;2023-06-26T06:28:44;6.70;;;6.20;;
16442;SDS011;8331;51.654;14.376;2023-06-26T06:31:10;7.53;;;6.93;;
16442;SDS011;8331;51.654;14.376;2023-06-26T06:33:37;7.43;;;6.93;;
16442;SDS011;8331;51.654;14.376;2023-06-26T06:36:04;7.10;;;6.53;;
16442;SDS011;8331;51.654;14.376;2023-06-26T06:38:31;7.00;;;6.50;;
16442;SDS011;8331;51.654;14.376;2023-06-26T06:40:58;6.90;;;6.40;;
16442;SDS011;8331;51.654;14.376;2023-06-26T06:43:24;7.10;;;6.60;;
16442;SDS011;8331;51.654;14.376;2023-06-26T06:45:51;6.57;;;6.13;;
16442;SDS011;8331;51.654;14.376;2023-06-26T06:48:18;7.13;;;6.43;;
16442;SDS011;8331;51.654;14.376;2023-06-26T06:50:44;7.43;;;6.83;;
16442;SDS011;8331;51.654;14.376;2023-06-26T06:53:11;6.70;;;6.17;;
16442;SDS011;8331;51.654;14.376;2023-06-26T06:55:38;7.50;;;6.80;;
16442;SDS011;8331;51.654;14.376;2023-06-26T06:58:04;7.40;;;6.80;;
16442;SDS011;8331;51.654;14.376;2023-06-26T07:00:31;6.57;;;6.07;;
16442;SDS011;8331;51.654;14.376;2023-06-26T07:02:58;7.30;;;6.60;;
16442;SDS011;8331;51.654;14.376;2023-06-26T07:05:26;6.90;;;6.23;;
16442;SDS011;8331;51.654;14.376;2023-06-26T07:07:53;7.40;;;6.33;;
16442;SDS011;8331;51.654;14.376;2023-06-26T07:10:20;6.90;;;6.50;;
16442;SDS011;8331;51.654;14.376;2023-06-26T07:12:46;6.63;;;6.23;;
16442;SDS011;8331;51.654;14.376;2023-06-26T07:15:13;6.93;;;6.43;;
16442;SDS011;8331;51.654;14.376;2023-06-26T07:17:40;6.90;;;6.20;;
16442;SDS011;8331;51.654;14.376;2023-06-26T07:20:07;6.63;;;6.20;;
16442;SDS011;8331;51.654;14.376;2023-06-26T07:22:35;6.53;;;6.03;;
16442;SDS011;8331;51.654;14.376;2023-06-26T07:25:02;6.63;;;6.20;;
16442;SDS011;8331;51.654;14.376;2023-06-26T07:27:30;6.20;;;5.70;;
16442;SDS011;8331;51.654;14.376;2023-06-26T07:29:57;5.97;;;5.60;;
16442;SDS011;8331;51.654;14.376;2023-06-26T07:32:24;7.70;;;5.80;;
16442;SDS011;8331;51.654;14.376;2023-06-26T07:34:50;6.73;;;6.10;;
16442;SDS011;8331;51.654;14.376;2023-06-26T07:37:17;6.60;;;5.63;;
16442;SDS011;8331;51.654;14.376;2023-06-26T07:39:43;6.20;;;5.77;;
16442;SDS011;8331;51.654;14.376;2023-06-26T07:42:10;5.33;;;4.93;;
16442;SDS011;8331;51.654;14.376;2023-06-26T07:44:37;5.73;;;5.33;;
16442;SDS011;8331;51.654;14.376;2023-06-26T07:47:03;5.07;;;4.67;;
16442;SDS011;8331;51.654;14.376;2023-06-26T07:49:30;5.50;;;5.20;;
16442;SDS011;8331;51.654;14.376;2023-06-26T07:51:57;5.40;;;5.10;;
16442;SDS011;8331;51.654;14.376;2023-06-26T07:54:25;5.07;;;4.67;;
16442;SDS011;8331;51.654;14.376;2023-06-26T07:57:02;5.80;;;5.23;;
16442;SDS011;8331;51.654;14.376;2023-06-26T07:59:29;5.80;;;5.40;;
16442;SDS011;8331;51.654;14.376;2023-06-26T08:01:56;6.13;;;5.60;;
16442;SDS011;8331;51.654;14.376;2023-06-26T08:04:24;5.47;;;5.13;;
16442;SDS011;8331;51.654;14.376;2023-06-26T08:06:53;5.90;;;5.30;;
16442;SDS011;8331;51.654;14.376;2023-06-26T08:09:20;5.77;;;5.40;;
16442;SDS011;8331;51.654;14.376;2023-06-26T08:11:47;5.50;;;5.20;;
16442;SDS011;8331;51.654;14.376;2023-06-26T08:14:14;5.40;;;5.00;;
16442;SDS011;8331;51.654;14.376;2023-06-26T08:16:42;5.80;;;5.50;;
16442;SDS011;8331;51.654;14.376;2023-06-26T08:19:09;6.13;;;5.53;;
16442;SDS011;8331;51.654;14.376;2023-06-26T08:21:36;5.27;;;4.97;;
16442;SDS011;8331;51.654;14.376;2023-06-26T08:24:02;5.60;;;5.20;;
16442;SDS011;8331;51.654;14.376;2023-06-26T08:26:29;5.67;;;5.27;;
16442;SDS011;8331;51.654;14.376;2023-06-26T08:28:56;6.83;;;5.33;;
16442;SDS011;8331;51.654;14.376;2023-06-26T08:31:22;5.57;;;5.17;;
16442;SDS011;8331;51.654;14.376;2023-06-26T08:33:49;5.30;;;4.90;;
16442;SDS011;8331;51.654;14.376;2023-06-26T08:36:16;5.43;;;4.93;;
16442;SDS011;8331;51.654;14.376;2023-06-26T08:38:43;5.40;;;4.80;;
16442;SDS011;8331;51.654;14.376;2023-06-26T08:41:09;5.30;;;4.83;;
16442;SDS011;8331;51.654;14.376;2023-06-26T08:43:36;5.27;;;4.87;;
16442;SDS011;8331;51.654;14.376;2023-06-26T08:46:03;4.70;;;4.40;;
16442;SDS011;8331;51.654;14.376;2023-06-26T08:48:31;4.83;;;4.43;;
16442;SDS011;8331;51.654;14.376;2023-06-26T08:51:00;4.93;;;4.63;;
16442;SDS011;8331;51.654;14.376;2023-06-26T08:53:43;4.67;;;4.37;;
16442;SDS011;8331;51.654;14.376;2023-06-26T08:56:12;4.57;;;4.17;;
16442;SDS011;8331;51.654;14.376;2023-06-26T08:58:41;4.00;;;3.80;;
16442;SDS011;8331;51.654;14.376;2023-06-26T09:01:09;4.40;;;4.10;;
16442;SDS011;8331;51.654;14.376;2023-06-26T09:03:36;4.17;;;3.77;;
16442;SDS011;8331;51.654;14.376;2023-06-26T09:06:03;3.93;;;3.70;;
16442;SDS011;8331;51.654;14.376;2023-06-26T09:08:29;5.03;;;4.53;;
16442;SDS011;8331;51.654;14.376;2023-06-26T09:10:56;4.10;;;3.90;;
16442;SDS011;8331;51.654;14.376;2023-06-26T09:13:23;4.63;;;4.30;;
16442;SDS011;8331;51.654;14.376;2023-06-26T09:15:55;4.60;;;4.30;;
16442;SDS011;8331;51.654;14.376;2023-06-26T09:18:22;4.60;;;4.30;;
16442;SDS011;8331;51.654;14.376;2023-06-26T09:20:49;3.93;;;3.73;;
16442;SDS011;8331;51.654;14.376;2023-06-26T09:23:16;4.10;;;3.80;;
16442;SDS011;8331;51.654;14.376;2023-06-26T09:25:43;4.17;;;3.87;;
16442;SDS011;8331;51.654;14.376;2023-06-26T09:28:11;4.10;;;3.80;;
16442;SDS011;8331;51.654;14.376;2023-06-26T09:30:38;4.20;;;3.80;;
16442;SDS011;8331;51.654;14.376;2023-06-26T09:33:14;4.33;;;4.03;;
16442;SDS011;8331;51.654;14.376;2023-06-26T09:35:42;3.97;;;3.70;;
16442;SDS011;8331;51.654;14.376;2023-06-26T09:38:09;4.63;;;4.30;;
16442;SDS011;8331;51.654;14.376;2023-06-26T09:40:36;4.20;;;3.90;;
16442;SDS011;8331;51.654;14.376;2023-06-26T09:43:05;4.60;;;4.30;;
16442;SDS011;8331;51.654;14.376;2023-06-26T09:45:35;4.68;;;4.38;;
16442;SDS011;8331;51.654;14.376;2023-06-26T09:48:05;4.10;;;3.80;;
16442;SDS011;8331;51.654;14.376;2023-06-26T09:50:32;4.68;;;4.38;;
16442;SDS011;8331;51.654;14.376;2023-06-26T09:53:07;4.18;;;3.97;;
16442;SDS011;8331;51.654;14.376;2023-06-26T09:55:34;4.10;;;3.80;;
16442;SDS011;8331;51.654;14.376;2023-06-26T09:58:01;4.63;;;4.23;;
16442;SDS011;8331;51.654;14.376;2023-06-26T10:00:30;5.82;;;4.93;;
16442;SDS011;8331;51.654;14.376;2023-06-26T10:02:58;5.10;;;4.60;;
16442;SDS011;8331;51.654;14.376;2023-06-26T10:05:25;4.93;;;4.50;;
16442;SDS011;8331;51.654;14.376;2023-06-26T10:07:52;4.18;;;3.97;;
16442;SDS011;8331;51.654;14.376;2023-06-26T10:10:20;4.63;;;4.35;;
16442;SDS011;8331;51.654;14.376;2023-06-26T10:12:48;6.55;;;4.55;;
16442;SDS011;8331;51.654;14.376;2023-06-26T10:15:15;5.50;;;4.30;;
16442;SDS011;8331;51.654;14.376;2023-06-26T10:17:43;4.60;;;4.20;;
16442;SDS011;8331;51.654;14.376;2023-06-26T10:20:11;4.15;;;3.85;;
16442;SDS011;8331;51.654;14.376;2023-06-26T10:22:41;4.68;;;4.40;;
16442;SDS011;8331;51.654;14.376;2023-06-26T10:25:09;4.70;;;4.38;;
16442;SDS011;8331;51.654;14.376;2023-06-26T10:27:38;4.75;;;4.45;;
16442;SDS011;8331;51.654;14.376;2023-06-26T10:30:09;4.30;;;4.10;;
16442;SDS011;8331;51.654;14.376;2023-06-26T10:32:38;4.78;;;4.50;;
16442;SDS011;8331;51.654;14.376;2023-06-26T10:35:06;4.32;;;4.03;;
16442;SDS011;8331;51.654;14.376;2023-06-26T10:37:43;4.72;;;4.43;;
16442;SDS011;8331;51.654;14.376;2023-06-26T10:40:13;5.60;;;4.47;;
16442;SDS011;8331;51.654;14.376;2023-06-26T10:42:40;4.60;;;4.30;;
16442;SDS011;8331;51.654;14.376;2023-06-26T10:47:39;5.30;;;4.55;;
16442;SDS011;8331;51.654;14.376;2023-06-26T10:55:39;5.10;;;4.63;;
16442;SDS011;8331;51.654;14.376;2023-06-26T11:00:57;4.72;;;4.43;;
16442;SDS011;8331;51.654;14.376;2023-06-26T11:04:03;4.60;;;4.30;;
16442;SDS011;8331;51.654;14.376;2023-06-26T11:06:30;5.10;;;4.60;;
16442;SDS011;8331;51.654;14.376;2023-06-26T11:09:07;5.00;;;4.60;;
16442;SDS011;8331;51.654;14.376;2023-06-26T11:14:26;4.75;;;4.45;;
16442;SDS011;8331;51.654;14.376;2023-06-26T11:16:56;5.05;;;4.72;;
16442;SDS011;8331;51.654;14.376;2023-06-26T11:19:24;4.68;;;4.40;;
16442;SDS011;8331;51.654;14.376;2023-06-26T11:21:52;4.68;;;4.32;;
16442;SDS011;8331;51.654;14.376;2023-06-26T11:24:19;4.85;;;4.38;;
16442;SDS011;8331;51.654;14.376;2023-06-26T11:26:46;4.90;;;4.60;;
16442;SDS011;8331;51.654;14.376;2023-06-26T11:29:13;6.57;;;4.70;;
16442;SDS011;8331;51.654;14.376;2023-06-26T11:31:40;4.78;;;4.40;;
16442;SDS011;8331;51.654;14.376;2023-06-26T11:34:11;5.05;;;4.72;;
16442;SDS011;8331;51.654;14.376;2023-06-26T11:36:40;4.85;;;4.55;;
16442;SDS011;8331;51.654;14.376;2023-06-26T11:39:09;5.10;;;4.72;;
16442;SDS011;8331;51.654;14.376;2023-06-26T11:41:36;5.53;;;4.85;;
16442;SDS011;8331;51.654;14.376;2023-06-26T11:44:04;4.82;;;4.40;;
16442;SDS011;8331;51.654;14.376;2023-06-26T11:46:31;4.93;;;4.63;;
16442;SDS011;8331;51.654;14.376;2023-06-26T11:48:58;4.93;;;4.53;;
16442;SDS011;8331;51.654;14.376;2023-06-26T11:51:28;4.32;;;4.13;;
16442;SDS011;8331;51.654;14.376;2023-06-26T11:53:55;4.80;;;4.50;;
16442;SDS011;8331;51.654;14.376;2023-06-26T11:56:22;4.85;;;4.45;;
16442;SDS011;8331;51.654;14.376;2023-06-26T12:04:03;5.95;;;5.10;;
16442;SDS011;8331;51.654;14.376;2023-06-26T12:06:31;5.82;;;5.43;;
16442;SDS011;8331;51.654;14.376;2023-06-26T12:08:58;5.38;;;5.07;;
16442;SDS011;8331;51.654;14.376;2023-06-26T12:11:25;5.50;;;5.07;;
16442;SDS011;8331;51.654;14.376;2023-06-26T12:13:56;5.15;;;4.85;;
16442;SDS011;8331;51.654;14.376;2023-06-26T12:16:22;5.20;;;4.90;;
16442;SDS011;8331;51.654;14.376;2023-06-26T12:18:49;4.78;;;4.53;;
16442;SDS011;8331;51.654;14.376;2023-06-26T12:24:01;5.10;;;4.70;;
16442;SDS011;8331;51.654;14.376;2023-06-26T12:26:28;5.43;;;5.13;;
16442;SDS011;8331;51.654;14.376;2023-06-26T12:29:03;5.03;;;4.72;;
16442;SDS011;8331;51.654;14.376;2023-06-26T12:31:30;5.10;;;4.70;;
16442;SDS011;8331;51.654;14.376;2023-06-26T12:33:57;5.55;;;5.15;;
16442;SDS011;8331;51.654;14.376;2023-06-26T12:36:24;5.20;;;4.80;;
16442;SDS011;8331;51.654;14.376;2023-06-26T12:38:52;5.25;;;4.40;;
16442;SDS011;8331;51.654;14.376;2023-06-26T12:41:19;4.63;;;4.40;;
16442;SDS011;8331;51.654;14.376;2023-06-26T12:43:46;4.75;;;4.35;;
16442;SDS011;8331;51.654;14.376;2023-06-26T12:46:13;4.70;;;4.30;;
16442;SDS011;8331;51.654;14.376;2023-06-26T12:48:41;4.70;;;4.40;;
16442;SDS011;8331;51.654;14.376;2023-06-26T12:51:13;4.78;;;4.50;;
16442;SDS011;8331;51.654;14.376;2023-06-26T12:53:40;4.97;;;4.68;;
16442;SDS011;8331;51.654;14.376;2023-06-26T12:56:08;5.05;;;4.60;;
16442;SDS011;8331;51.654;14.376;2023-06-26T12:58:35;4.85;;;4.55;;
16442;SDS011;8331;51.654;14.376;2023-06-26T13:01:03;5.93;;;4.53;;
16442;SDS011;8331;51.654;14.376;2023-06-26T13:03:30;5.10;;;4.60;;
16442;SDS011;8331;51.654;14.376;2023-06-26T13:05:57;4.82;;;4.53;;
16442;SDS011;8331;51.654;14.376;2023-06-26T13:08:23;5.00;;;4.70;;
16442;SDS011;8331;51.654;14.376;2023-06-26T13:10:50;4.95;;;4.50;;
16442;SDS011;8331;51.654;14.376;2023-06-26T13:13:17;4.80;;;4.40;;
16442;SDS011;8331;51.654;14.376;2023-06-26T13:15:44;4.93;;;4.25;;
16442;SDS011;8331;51.654;14.376;2023-06-26T13:18:11;4.97;;;4.68;;
16442;SDS011;8331;51.654;14.376;2023-06-26T13:20:38;4.43;;;4.13;;
16442;SDS011;8331;51.654;14.376;2023-06-26T13:23:05;5.07;;;4.68;;
16442;SDS011;8331;51.654;14.376;2023-06-26T13:25:33;4.97;;;4.63;;
16442;SDS011;8331;51.654;14.376;2023-06-26T13:27:59;5.20;;;4.72;;
16442;SDS011;8331;51.654;14.376;2023-06-26T13:30:26;5.18;;;4.78;;
16442;SDS011;8331;51.654;14.376;2023-06-26T13:32:53;5.10;;;4.70;;
16442;SDS011;8331;51.654;14.376;2023-06-26T13:35:19;4.50;;;4.30;;
16442;SDS011;8331;51.654;14.376;2023-06-26T13:37:46;5.43;;;4.95;;
16442;SDS011;8331;51.654;14.376;2023-06-26T13:40:13;4.93;;;4.63;;
16442;SDS011;8331;51.654;14.376;2023-06-26T13:42:40;5.30;;;5.00;;
16442;SDS011;8331;51.654;14.376;2023-06-26T13:45:07;4.93;;;4.63;;
16442;SDS011;8331;51.654;14.376;2023-06-26T13:47:52;5.15;;;4.88;;
16442;SDS011;8331;51.654;14.376;2023-06-26T13:50:18;5.15;;;4.85;;
16442;SDS011;8331;51.654;14.376;2023-06-26T13:52:45;4.90;;;4.60;;
16442;SDS011;8331;51.654;14.376;2023-06-26T13:55:12;4.93;;;4.65;;
16442;SDS011;8331;51.654;14.376;2023-06-26T13:57:38;5.38;;;5.07;;
16442;SDS011;8331;51.654;14.376;2023-06-26T14:00:08;4.97;;;4.68;;
16442;SDS011;8331;51.654;14.376;2023-06-26T14:02:37;5.10;;;4.80;;
16442;SDS011;8331;51.654;14.376;2023-06-26T14:05:04;5.43;;;5.13;;
16442;SDS011;8331;51.654;14.376;2023-06-26T14:07:31;5.30;;;4.97;;
16442;SDS011;8331;51.654;14.376;2023-06-26T14:09:58;5.15;;;4.85;;
16442;SDS011;8331;51.654;14.376;2023-06-26T14:12:24;4.95;;;4.63;;
16442;SDS011;8331;51.654;14.376;2023-06-26T14:14:51;5.40;;;5.00;;
16442;SDS011;8331;51.654;14.376;2023-06-26T14:17:18;5.00;;;4.70;;
16442;SDS011;8331;51.654;14.376;2023-06-26T14:19:45;5.22;;;4.90;;
16442;SDS011;8331;51.654;14.376;2023-06-26T14:22:12;5.30;;;5.00;;
16442;SDS011;8331;51.654;14.376;2023-06-26T14:24:39;5.10;;;4.80;;
16442;SDS011;8331;51.654;14.376;2023-06-26T14:27:06;4.82;;;4.50;;
16442;SDS011;8331;51.654;14.376;2023-06-26T14:29:32;5.10;;;4.80;;
16442;SDS011;8331;51.654;14.376;2023-06-26T14:31:59;5.50;;;5.00;;
16442;SDS011;8331;51.654;14.376;2023-06-26T14:34:26;5.00;;;4.72;;
16442;SDS011;8331;51.654;14.376;2023-06-26T14:36:52;5.60;;;5.20;;
16442;SDS011;8331;51.654;14.376;2023-06-26T14:39:19;5.03;;;4.72;;
16442;SDS011;8331;51.654;14.376;2023-06-26T14:41:47;5.40;;;5.00;;
16442;SDS011;8331;51.654;14.376;2023-06-26T14:44:14;5.35;;;4.95;;
16442;SDS011;8331;51.654;14.376;2023-06-26T14:46:42;4.95;;;4.55;;
16442;SDS011;8331;51.654;14.376;2023-06-26T14:49:09;5.05;;;4.75;;
16442;SDS011;8331;51.654;14.376;2023-06-26T14:51:36;4.95;;;4.65;;
16442;SDS011;8331;51.654;14.376;2023-06-26T14:54:04;5.43;;;5.03;;
16442;SDS011;8331;51.654;14.376;2023-06-26T14:56:31;5.40;;;5.00;;
16442;SDS011;8331;51.654;14.376;2023-06-26T14:58:57;4.70;;;4.30;;
16442;SDS011;8331;51.654;14.376;2023-06-26T15:01:24;5.05;;;4.75;;
16442;SDS011;8331;51.654;14.376;2023-06-26T15:03:51;4.75;;;4.35;;
16442;SDS011;8331;51.654;14.376;2023-06-26T15:06:18;5.30;;;4.90;;
16442;SDS011;8331;51.654;14.376;2023-06-26T15:08:44;5.03;;;4.72;;
16442;SDS011;8331;51.654;14.376;2023-06-26T15:11:11;5.10;;;4.80;;
16442;SDS011;8331;51.654;14.376;2023-06-26T15:13:38;5.03;;;4.72;;
16442;SDS011;8331;51.654;14.376;2023-06-26T15:16:04;5.20;;;4.90;;
16442;SDS011;8331;51.654;14.376;2023-06-26T15:18:31;4.72;;;4.43;;